Time;durP1;ratioP1;P1;durP2;ratioP2;P2;SDS_P1;SDS_P2;PMS_P1;PMS_P2;Temp;Humidity;BMP_temperature;BMP_pressure;BME280_temperature;BME280_humidity;BME280_pressure;Samples;Min_cycle;Max_cycle;Signal;HPM_P1;HPM_P2
2022/09/30 00:00:49;;;;;;;9.00;7.30;;;;;;;;;;5011954;28;20062;-70
2022/09/30 00:03:15;;;;;;;9.52;7.55;;;;;;;;;;4995239;28;20061;-69
2022/09/30 00:05:42;;;;;;;11.52;7.85;;;;;;;;;;5010403;28;20054;-70
2022/09/30 00:08:08;;;;;;;10.52;7.53;;;;;;;;;;4994034;28;20055;-70
2022/09/30 00:10:34;;;;;;;10.48;7.28;;;;;;;;;;5011698;28;20576;-70
2022/09/30 00:13:02;;;;;;;10.38;7.18;;;;;;;;;;5007031;28;20054;-70
2022/09/30 00:15:28;;;;;;;9.80;7.03;;;;;;;;;;4998324;28;20058;-71
2022/09/30 00:17:54;;;;;;;10.23;6.78;;;;;;;;;;5011145;28;20093;-70
2022/09/30 00:20:21;;;;;;;9.15;5.80;;;;;;;;;;5012211;28;20054;-70
2022/09/30 00:22:47;;;;;;;9.32;6.53;;;;;;;;;;5011376;28;20584;-70
2022/09/30 00:25:14;;;;;;;7.90;5.97;;;;;;;;;;5011538;28;20054;-70
2022/09/30 00:27:41;;;;;;;10.07;7.70;;;;;;;;;;5010671;28;20143;-70
2022/09/30 00:30:07;;;;;;;12.90;8.63;;;;;;;;;;5010897;28;20062;-70
2022/09/30 00:32:34;;;;;;;12.25;8.43;;;;;;;;;;5009835;28;20066;-70
2022/09/30 00:35:00;;;;;;;12.15;8.45;;;;;;;;;;4992407;28;20067;-70
2022/09/30 00:37:26;;;;;;;13.68;8.48;;;;;;;;;;4995662;28;20050;-70
2022/09/30 00:39:52;;;;;;;11.70;8.52;;;;;;;;;;5000010;28;20101;-70
2022/09/30 00:42:19;;;;;;;13.05;8.35;;;;;;;;;;4992491;28;20051;-70
2022/09/30 00:44:51;;;;;;;10.95;7.80;;;;;;;;;;5010618;28;20097;-70
2022/09/30 00:47:33;;;;;;;12.10;8.23;;;;;;;;;;5006581;28;20109;-70
2022/09/30 00:50:20;;;;;;;11.20;7.47;;;;;;;;;;4992310;28;20059;-70
2022/09/30 00:52:52;;;;;;;9.70;7.03;;;;;;;;;;5005525;28;20046;-70
2022/09/30 00:55:28;;;;;;;9.18;6.53;;;;;;;;;;5003394;28;20579;-69
2022/09/30 00:57:55;;;;;;;9.57;6.43;;;;;;;;;;4996105;28;20046;-70
2022/09/30 01:00:22;;;;;;;15.27;6.47;;;;;;;;;;5011351;28;20459;-70
2022/09/30 01:02:48;;;;;;;10.25;6.00;;;;;;;;;;5011657;28;20054;-70
2022/09/30 01:05:15;;;;;;;7.88;5.75;;;;;;;;;;5012100;28;20525;-69
2022/09/30 01:07:41;;;;;;;5.45;4.50;;;;;;;;;;5011646;28;20624;-69
2022/09/30 01:10:07;;;;;;;7.32;4.85;;;;;;;;;;5010339;28;20105;-70
2022/09/30 01:12:34;;;;;;;13.73;4.35;;;;;;;;;;4999246;28;20098;-70
2022/09/30 01:15:00;;;;;;;7.97;4.20;;;;;;;;;;4992015;28;20462;-69
2022/09/30 01:17:59;;;;;;;5.75;4.03;;;;;;;;;;4992367;28;20054;-70
2022/09/30 01:20:36;;;;;;;7.95;3.88;;;;;;;;;;4990307;28;20055;-69
2022/09/30 01:23:14;;;;;;;5.60;4.13;;;;;;;;;;5009003;28;20054;-71
2022/09/30 01:25:57;;;;;;;3.83;3.03;;;;;;;;;;4991938;28;20051;-70
2022/09/30 01:28:32;;;;;;;4.72;3.85;;;;;;;;;;5002038;28;20088;-70
2022/09/30 01:30:58;;;;;;;;;;;;;;;;;;4994633;28;21810;-70
2022/09/30 01:33:31;;;;;;;5.65;3.50;;;;;;;;;;5009581;28;47342;-69
2022/09/30 01:35:57;;;;;;;3.85;2.88;;;;;;;;;;5011307;28;20046;-70
2022/09/30 01:38:34;;;;;;;7.65;3.08;;;;;;;;;;5011927;28;20112;-70
2022/09/30 01:41:22;;;;;;;6.80;3.20;;;;;;;;;;5014172;28;20058;-70
2022/09/30 01:43:56;;;;;;;5.97;3.00;;;;;;;;;;5014501;28;20097;-70
2022/09/30 01:46:25;;;;;;;7.35;3.45;;;;;;;;;;5012929;28;20093;-70
2022/09/30 01:49:01;;;;;;;4.32;3.20;;;;;;;;;;5014661;28;20490;-70
2022/09/30 01:51:27;;;;;;;4.97;3.70;;;;;;;;;;5013614;28;20130;-70
2022/09/30 01:53:53;;;;;;;4.38;3.15;;;;;;;;;;5014494;28;20058;-70
2022/09/30 01:56:23;;;;;;;5.80;3.00;;;;;;;;;;5010209;28;20054;-70
2022/09/30 01:58:50;;;;;;;5.18;3.40;;;;;;;;;;4994408;28;20066;-70
2022/09/30 02:01:26;;;;;;;4.47;2.88;;;;;;;;;;5010037;28;20494;-70
2022/09/30 02:03:55;;;;;;;5.18;3.20;;;;;;;;;;4998759;28;20050;-70
2022/09/30 02:06:28;;;;;;;4.25;3.00;;;;;;;;;;4995200;28;20077;-70
2022/09/30 02:09:00;;;;;;;5.53;2.90;;;;;;;;;;4994986;28;20063;-71
2022/09/30 02:11:28;;;;;;;3.85;3.10;;;;;;;;;;5001652;28;20054;-70
2022/09/30 02:14:00;;;;;;;4.03;2.75;;;;;;;;;;5003786;28;20063;-70
2022/09/30 02:16:39;;;;;;;4.03;3.20;;;;;;;;;;5009527;28;20059;-70
2022/09/30 02:19:09;;;;;;;3.10;2.80;;;;;;;;;;5014571;28;20080;-69
2022/09/30 02:21:38;;;;;;;3.60;2.85;;;;;;;;;;5013836;28;20053;-70
2022/09/30 02:24:06;;;;;;;3.67;2.85;;;;;;;;;;5014297;28;20556;-69
2022/09/30 02:26:38;;;;;;;3.83;2.63;;;;;;;;;;5013881;28;20511;-70
2022/09/30 02:29:07;;;;;;;3.47;2.80;;;;;;;;;;5012644;28;20113;-69
2022/09/30 02:31:36;;;;;;;3.83;2.75;;;;;;;;;;5011894;28;20478;-69
2022/09/30 02:34:25;;;;;;;6.03;3.20;;;;;;;;;;5007020;28;20051;-69
2022/09/30 02:36:55;;;;;;;5.15;2.80;;;;;;;;;;4990075;28;20573;-70
2022/09/30 02:39:26;;;;;;;3.13;2.72;;;;;;;;;;4994091;28;20503;-70
2022/09/30 02:41:57;;;;;;;5.90;3.28;;;;;;;;;;4994045;28;20054;-69
2022/09/30 02:44:23;;;;;;;5.10;2.85;;;;;;;;;;5009730;28;20054;-70
2022/09/30 02:47:06;;;;;;;3.58;2.67;;;;;;;;;;5013904;28;20050;-70
2022/09/30 02:49:38;;;;;;;5.63;2.50;;;;;;;;;;5010814;28;20114;-70
2022/09/30 02:52:21;;;;;;;6.63;2.65;;;;;;;;;;5012228;28;20058;-70
2022/09/30 02:55:05;;;;;;;3.63;2.67;;;;;;;;;;5012830;28;20055;-70
2022/09/30 02:57:32;;;;;;;4.32;2.83;;;;;;;;;;5012546;28;20465;-69
2022/09/30 02:59:58;;;;;;;4.63;2.88;;;;;;;;;;5012862;28;20054;-70
2022/09/30 03:02:30;;;;;;;5.32;2.70;;;;;;;;;;5013473;28;20082;-70
2022/09/30 03:04:56;;;;;;;4.47;2.70;;;;;;;;;;5012487;28;20058;-70
2022/09/30 03:07:22;;;;;;;7.40;3.55;;;;;;;;;;5010651;28;20565;-70
2022/09/30 03:09:53;;;;;;;3.75;2.85;;;;;;;;;;5010967;28;20879;-70
2022/09/30 03:12:45;;;;;;;3.58;2.60;;;;;;;;;;4993894;28;20054;-70
2022/09/30 03:15:22;;;;;;;3.70;2.65;;;;;;;;;;5008814;28;20073;-69
2022/09/30 03:17:51;;;;;;;4.07;2.90;;;;;;;;;;5011106;28;20046;-70
2022/09/30 03:20:35;;;;;;;3.35;2.53;;;;;;;;;;5013399;28;20058;-70
2022/09/30 03:23:13;;;;;;;3.22;2.70;;;;;;;;;;5013525;28;20058;-70
2022/09/30 03:25:46;;;;;;;4.30;2.78;;;;;;;;;;5010838;28;20086;-70
2022/09/30 03:28:21;;;;;;;3.60;2.80;;;;;;;;;;5011943;28;20054;-70
2022/09/30 03:30:58;;;;;;;3.65;2.90;;;;;;;;;;5010170;28;20055;-70
2022/09/30 03:33:27;;;;;;;3.17;2.67;;;;;;;;;;5010311;28;20140;-70
2022/09/30 03:35:58;;;;;;;5.72;2.55;;;;;;;;;;5012753;28;20054;-70
2022/09/30 03:38:25;;;;;;;4.28;2.58;;;;;;;;;;5012972;28;20061;-70
2022/09/30 03:41:10;;;;;;;4.32;2.58;;;;;;;;;;5002925;28;20051;-71
2022/09/30 03:43:36;;;;;;;4.13;2.72;;;;;;;;;;4993743;28;20062;-70
2022/09/30 03:46:17;;;;;;;6.60;2.95;;;;;;;;;;4993389;28;20515;-70
2022/09/30 03:48:45;;;;;;;4.00;3.03;;;;;;;;;;4993580;28;20059;-70
2022/09/30 03:51:12;;;;;;;4.55;2.75;;;;;;;;;;5010357;28;20573;-70
2022/09/30 03:53:39;;;;;;;2.78;2.33;;;;;;;;;;5012731;28;20109;-70
2022/09/30 03:56:05;;;;;;;4.90;2.95;;;;;;;;;;5012493;28;20120;-70
2022/09/30 03:58:33;;;;;;;4.82;2.72;;;;;;;;;;5012308;28;20085;-70
2022/09/30 04:00:59;;;;;;;3.97;2.67;;;;;;;;;;5010843;28;20105;-70
2022/09/30 04:03:27;;;;;;;3.90;2.88;;;;;;;;;;5012544;28;20131;-70
2022/09/30 04:05:53;;;;;;;3.03;2.55;;;;;;;;;;5011401;28;20101;-70
2022/09/30 04:08:21;;;;;;;4.35;3.10;;;;;;;;;;5011272;28;20054;-70
2022/09/30 04:10:47;;;;;;;3.05;2.58;;;;;;;;;;5007581;28;20499;-69
2022/09/30 04:13:13;;;;;;;3.60;2.95;;;;;;;;;;5013051;28;20541;-70
2022/09/30 04:15:40;;;;;;;6.55;3.03;;;;;;;;;;5012152;28;20070;-70
2022/09/30 04:18:06;;;;;;;4.28;2.80;;;;;;;;;;5012601;28;20117;-70
2022/09/30 04:20:32;;;;;;;4.85;3.13;;;;;;;;;;5009553;28;20442;-70
2022/09/30 04:22:59;;;;;;;3.58;2.53;;;;;;;;;;5010977;28;20066;-70
2022/09/30 04:25:26;;;;;;;4.75;3.25;;;;;;;;;;5012136;28;20061;-70
2022/09/30 04:27:59;;;;;;;4.28;2.83;;;;;;;;;;5010833;28;20561;-70
2022/09/30 04:30:25;;;;;;;3.60;2.75;;;;;;;;;;5009210;28;20054;-69
2022/09/30 04:32:58;;;;;;;4.75;3.67;;;;;;;;;;5012022;28;20169;-70
2022/09/30 04:35:28;;;;;;;6.63;3.63;;;;;;;;;;5012638;28;20486;-70
2022/09/30 04:37:55;;;;;;;6.15;3.55;;;;;;;;;;5011944;28;20058;-70
2022/09/30 04:40:21;;;;;;;6.85;3.90;;;;;;;;;;5010631;28;20133;-70
2022/09/30 04:42:47;;;;;;;5.10;3.47;;;;;;;;;;5012339;28;20101;-70
2022/09/30 04:45:13;;;;;;;6.07;3.60;;;;;;;;;;5012251;28;20054;-70
2022/09/30 04:47:44;;;;;;;4.90;3.40;;;;;;;;;;5011647;28;20093;-70
2022/09/30 04:50:10;;;;;;;5.13;3.70;;;;;;;;;;5010061;28;20046;-70
2022/09/30 04:52:37;;;;;;;4.13;3.40;;;;;;;;;;5010834;28;20105;-71
2022/09/30 04:55:03;;;;;;;5.05;3.42;;;;;;;;;;5011701;28;20498;-71
2022/09/30 04:57:30;;;;;;;5.38;3.72;;;;;;;;;;5011419;28;20102;-71
2022/09/30 04:59:56;;;;;;;4.70;3.72;;;;;;;;;;5005990;28;20125;-70
2022/09/30 05:02:22;;;;;;;7.13;4.03;;;;;;;;;;5010897;28;20137;-70
2022/09/30 05:04:49;;;;;;;4.88;3.83;;;;;;;;;;5011681;28;20054;-70
2022/09/30 05:07:15;;;;;;;5.70;3.78;;;;;;;;;;4997620;28;20580;-70
2022/09/30 05:09:41;;;;;;;5.53;4.03;;;;;;;;;;5011354;28;20557;-70
2022/09/30 05:12:08;;;;;;;5.82;3.90;;;;;;;;;;5013679;28;20054;-70
2022/09/30 05:14:34;;;;;;;6.07;3.83;;;;;;;;;;5015124;28;20091;-70
2022/09/30 05:17:01;;;;;;;5.60;4.07;;;;;;;;;;5014847;28;20089;-70
2022/09/30 05:19:27;;;;;;;6.43;4.10;;;;;;;;;;5016022;28;20109;-70
2022/09/30 05:21:54;;;;;;;7.40;4.28;;;;;;;;;;5015131;28;20207;-70
2022/09/30 05:24:20;;;;;;;6.65;4.30;;;;;;;;;;5014900;28;20062;-71
2022/09/30 05:26:46;;;;;;;8.00;4.05;;;;;;;;;;5014845;28;20113;-70
2022/09/30 05:29:13;;;;;;;7.38;4.18;;;;;;;;;;5015750;28;20061;-70
2022/09/30 05:31:41;;;;;;;7.00;4.25;;;;;;;;;;5014692;28;20058;-70
2022/09/30 05:34:07;;;;;;;10.07;4.65;;;;;;;;;;5014849;28;20549;-70
2022/09/30 05:36:33;;;;;;;4.70;4.15;;;;;;;;;;5014859;28;20109;-70
2022/09/30 05:39:00;;;;;;;8.80;5.13;;;;;;;;;;5003522;28;20062;-70
2022/09/30 05:41:26;;;;;;;5.68;3.97;;;;;;;;;;5014587;28;20058;-70
2022/09/30 05:43:52;;;;;;;6.10;4.97;;;;;;;;;;5014415;28;20058;-71
2022/09/30 05:46:19;;;;;;;6.65;5.00;;;;;;;;;;5014859;28;20524;-70
2022/09/30 05:48:46;;;;;;;5.57;4.07;;;;;;;;;;5010190;28;20051;-71
2022/09/30 05:51:12;;;;;;;6.90;4.68;;;;;;;;;;5004814;28;20066;-70
2022/09/30 05:53:40;;;;;;;6.38;4.15;;;;;;;;;;5008019;28;20077;-70
2022/09/30 05:56:07;;;;;;;6.30;5.07;;;;;;;;;;5013678;28;20505;-70
2022/09/30 05:58:34;;;;;;;8.27;5.20;;;;;;;;;;5011587;28;20125;-70
2022/09/30 06:01:06;;;;;;;7.35;5.30;;;;;;;;;;5013542;28;20061;-70
2022/09/30 06:03:39;;;;;;;6.20;4.93;;;;;;;;;;5013204;28;20110;-70
2022/09/30 06:06:06;;;;;;;10.52;5.15;;;;;;;;;;4998857;28;20117;-69
2022/09/30 06:08:32;;;;;;;6.88;5.25;;;;;;;;;;5005533;28;20105;-68
2022/09/30 06:10:58;;;;;;;8.38;5.63;;;;;;;;;;5013865;28;20058;-68
2022/09/30 06:13:25;;;;;;;9.13;6.55;;;;;;;;;;5014111;28;20528;-67
2022/09/30 06:15:55;;;;;;;11.50;6.05;;;;;;;;;;5013301;28;20070;-67
2022/09/30 06:18:22;;;;;;;7.43;5.40;;;;;;;;;;5013940;28;20094;-67
2022/09/30 06:20:48;;;;;;;8.90;6.53;;;;;;;;;;5013985;28;20062;-70
2022/09/30 06:23:15;;;;;;;8.57;6.45;;;;;;;;;;5013037;28;20081;-68
2022/09/30 06:25:42;;;;;;;11.00;6.75;;;;;;;;;;5013026;28;20058;-70
2022/09/30 06:28:08;;;;;;;11.43;6.90;;;;;;;;;;5012860;28;20058;-70
2022/09/30 06:30:35;;;;;;;7.35;6.28;;;;;;;;;;5010047;28;20216;-71
2022/09/30 06:33:01;;;;;;;15.40;6.88;;;;;;;;;;5008030;28;20414;-72
2022/09/30 06:35:27;;;;;;;12.10;8.25;;;;;;;;;;5012733;28;20055;-70
2022/09/30 06:37:54;;;;;;;12.38;7.90;;;;;;;;;;5013317;28;20061;-71
2022/09/30 06:40:20;;;;;;;10.60;7.88;;;;;;;;;;5005653;28;20113;-69
2022/09/30 06:42:47;;;;;;;13.65;9.18;;;;;;;;;;4997581;28;20050;-70
2022/09/30 06:45:13;;;;;;;12.63;8.35;;;;;;;;;;5013431;28;20054;-68
2022/09/30 06:48:01;;;;;;;14.10;8.95;;;;;;;;;;5010898;28;20125;-69
2022/09/30 06:50:31;;;;;;;11.13;8.25;;;;;;;;;;5007607;28;20510;-69
2022/09/30 06:52:58;;;;;;;10.48;7.72;;;;;;;;;;5012628;28;20054;-69
2022/09/30 06:55:25;;;;;;;13.18;8.93;;;;;;;;;;5013799;28;20498;-68
2022/09/30 06:57:52;;;;;;;12.00;8.82;;;;;;;;;;5010092;28;20538;-69
2022/09/30 07:00:18;;;;;;;11.45;8.98;;;;;;;;;;5003584;28;20058;-68
2022/09/30 07:02:45;;;;;;;11.63;8.18;;;;;;;;;;5012416;28;20198;-68
2022/09/30 07:05:13;;;;;;;13.00;9.00;;;;;;;;;;5008971;28;20051;-68
2022/09/30 07:07:41;;;;;;;13.65;8.50;;;;;;;;;;5007962;28;20530;-67
2022/09/30 07:10:07;;;;;;;11.95;8.27;;;;;;;;;;5003358;28;20058;-67
2022/09/30 07:12:33;;;;;;;9.80;7.75;;;;;;;;;;4993383;28;20074;-66
2022/09/30 07:14:59;;;;;;;10.50;8.88;;;;;;;;;;5005778;28;20062;-65
2022/09/30 07:17:26;;;;;;;12.90;8.82;;;;;;;;;;5012910;28;20054;-66
2022/09/30 07:19:52;;;;;;;15.93;9.65;;;;;;;;;;5012709;28;20133;-66
2022/09/30 07:22:33;;;;;;;15.18;10.10;;;;;;;;;;5012595;28;20058;-68
2022/09/30 07:25:02;;;;;;;17.33;11.38;;;;;;;;;;5011804;28;20055;-68
2022/09/30 07:27:31;;;;;;;16.92;11.82;;;;;;;;;;5012696;28;20062;-69
2022/09/30 07:29:58;;;;;;;17.35;12.38;;;;;;;;;;5011311;28;20101;-68
2022/09/30 07:32:44;;;;;;;17.58;11.48;;;;;;;;;;5012886;28;20141;-68
2022/09/30 07:35:11;;;;;;;14.55;10.20;;;;;;;;;;5010764;28;20046;-66
2022/09/30 07:37:37;;;;;;;18.70;12.80;;;;;;;;;;5011121;28;20055;-66
2022/09/30 07:40:05;;;;;;;19.88;13.25;;;;;;;;;;5010867;28;20054;-67
2022/09/30 07:42:31;;;;;;;19.38;14.02;;;;;;;;;;5012517;28;20054;-67
2022/09/30 07:44:58;;;;;;;18.80;13.57;;;;;;;;;;5002514;28;20065;-69
2022/09/30 07:47:24;;;;;;;21.88;15.57;;;;;;;;;;5011863;28;20054;-69
2022/09/30 07:49:51;;;;;;;24.75;15.57;;;;;;;;;;5013139;28;20046;-70
2022/09/30 07:52:17;;;;;;;24.65;16.30;;;;;;;;;;5012393;28;20479;-70
2022/09/30 07:54:43;;;;;;;23.20;17.48;;;;;;;;;;5012261;28;20470;-70
2022/09/30 07:57:16;;;;;;;27.60;19.10;;;;;;;;;;5012245;28;20133;-69
2022/09/30 07:59:42;;;;;;;30.38;19.85;;;;;;;;;;5011967;28;20058;-67
2022/09/30 08:02:14;;;;;;;29.08;20.20;;;;;;;;;;5011668;28;20101;-68
2022/09/30 08:04:40;;;;;;;28.25;21.15;;;;;;;;;;5012340;28;20571;-68
2022/09/30 08:07:10;;;;;;;29.13;20.65;;;;;;;;;;5011329;28;21153;-70
2022/09/30 08:09:36;;;;;;;32.13;20.55;;;;;;;;;;5011378;28;20104;-70
2022/09/30 08:12:04;;;;;;;29.45;21.15;;;;;;;;;;5011714;28;20907;-69
2022/09/30 08:14:30;;;;;;;40.08;23.77;;;;;;;;;;5011453;28;20593;-69
2022/09/30 08:16:59;;;;;;;35.78;23.45;;;;;;;;;;5011837;28;20065;-69
2022/09/30 08:19:26;;;;;;;39.80;21.95;;;;;;;;;;5025327;28;20848;-69
2022/09/30 08:21:53;;;;;;;33.47;22.98;;;;;;;;;;5006238;28;20109;-70
2022/09/30 08:24:20;;;;;;;28.17;20.20;;;;;;;;;;5011892;28;20070;-70
2022/09/30 08:26:46;;;;;;;29.15;20.23;;;;;;;;;;5010574;28;20129;-71
2022/09/30 08:29:13;;;;;;;33.13;21.35;;;;;;;;;;5010195;28;20125;-71
2022/09/30 08:31:50;;;;;;;24.63;18.10;;;;;;;;;;5011329;28;20077;-70
2022/09/30 08:34:16;;;;;;;24.55;17.27;;;;;;;;;;5012180;28;20081;-71
2022/09/30 08:36:45;;;;;;;22.00;17.02;;;;;;;;;;5010922;28;20054;-70
2022/09/30 08:39:11;;;;;;;22.05;14.77;;;;;;;;;;5011548;28;20061;-70
2022/09/30 08:41:38;;;;;;;18.13;13.43;;;;;;;;;;5011547;28;20050;-69
2022/09/30 08:44:16;;;;;;;17.90;12.02;;;;;;;;;;5010457;28;20057;-69
2022/09/30 08:46:45;;;;;;;12.65;9.70;;;;;;;;;;5011727;28;20577;-70
2022/09/30 08:49:29;;;;;;;11.25;8.75;;;;;;;;;;5011290;28;20050;-71
2022/09/30 08:51:56;;;;;;;12.63;9.85;;;;;;;;;;5024864;28;20062;-71
2022/09/30 08:54:24;;;;;;;10.45;8.55;;;;;;;;;;5011629;28;20495;-71
2022/09/30 08:56:51;;;;;;;10.32;7.68;;;;;;;;;;5009125;28;20102;-72
2022/09/30 08:59:29;;;;;;;9.45;7.40;;;;;;;;;;5004359;28;20487;-71
2022/09/30 09:02:19;;;;;;;8.23;6.88;;;;;;;;;;5010230;28;20058;-70
2022/09/30 09:04:46;;;;;;;7.40;5.97;;;;;;;;;;4983305;28;20546;-71
2022/09/30 09:07:31;;;;;;;6.60;5.60;;;;;;;;;;5002274;28;20054;-71
2022/09/30 09:10:06;;;;;;;8.93;6.63;;;;;;;;;;5011106;28;20544;-70
2022/09/30 09:12:52;;;;;;;8.85;5.45;;;;;;;;;;5009253;28;20050;-70
2022/09/30 09:15:42;;;;;;;7.38;6.10;;;;;;;;;;5011066;28;20061;-70
2022/09/30 09:18:18;;;;;;;6.30;5.33;;;;;;;;;;5011495;28;20058;-72
2022/09/30 09:20:54;;;;;;;5.28;4.70;;;;;;;;;;5011180;28;20058;-71
2022/09/30 09:23:20;;;;;;;5.18;4.60;;;;;;;;;;5010844;28;20490;-71
2022/09/30 09:25:51;;;;;;;6.43;4.32;;;;;;;;;;5011339;28;20109;-71
2022/09/30 09:28:36;;;;;;;5.95;4.60;;;;;;;;;;5009984;28;20054;-71
2022/09/30 09:31:03;;;;;;;6.80;4.93;;;;;;;;;;4999187;28;20903;-71
2022/09/30 09:33:30;;;;;;;5.15;4.45;;;;;;;;;;4993811;28;20106;-71
2022/09/30 09:36:18;;;;;;;5.75;4.68;;;;;;;;;;5002699;28;20541;-71
2022/09/30 09:38:44;;;;;;;6.70;5.00;;;;;;;;;;5010384;28;20054;-71
2022/09/30 09:41:13;;;;;;;5.80;4.93;;;;;;;;;;5009927;28;20466;-71
2022/09/30 09:43:44;;;;;;;7.15;5.10;;;;;;;;;;5007749;28;20065;-70
2022/09/30 09:46:23;;;;;;;8.85;6.13;;;;;;;;;;5011473;28;20069;-70
2022/09/30 09:49:09;;;;;;;8.20;5.65;;;;;;;;;;5002169;28;20059;-70
2022/09/30 09:51:38;;;;;;;7.03;5.55;;;;;;;;;;5010036;28;20065;-70
2022/09/30 09:54:08;;;;;;;9.73;5.75;;;;;;;;;;5011070;28;20054;-70
2022/09/30 09:56:36;;;;;;;7.80;5.75;;;;;;;;;;5011441;28;20109;-71
2022/09/30 09:59:23;;;;;;;8.02;6.60;;;;;;;;;;5012847;28;20362;-70
2022/09/30 10:01:52;;;;;;;8.65;6.80;;;;;;;;;;5013473;28;20050;-70
2022/09/30 10:04:23;;;;;;;8.55;6.32;;;;;;;;;;5012050;28;20930;-69
2022/09/30 10:06:49;;;;;;;8.15;6.88;;;;;;;;;;5014359;28;20057;-69
2022/09/30 10:09:24;;;;;;;8.52;6.65;;;;;;;;;;5013574;28;20573;-70
2022/09/30 10:12:19;;;;;;;9.07;7.10;;;;;;;;;;5010896;28;20054;-70
2022/09/30 10:14:47;;;;;;;11.20;6.70;;;;;;;;;;5007884;28;20121;-69
2022/09/30 10:17:34;;;;;;;7.47;6.15;;;;;;;;;;5012782;28;20073;-70
2022/09/30 10:20:05;;;;;;;8.68;6.45;;;;;;;;;;5006476;28;20051;-69
2022/09/30 10:22:32;;;;;;;9.50;5.63;;;;;;;;;;5013194;28;20168;-70
2022/09/30 10:25:08;;;;;;;6.55;5.43;;;;;;;;;;5005900;28;20059;-69
2022/09/30 10:27:34;;;;;;;6.07;4.75;;;;;;;;;;5012695;28;20494;-69
2022/09/30 10:30:00;;;;;;;5.60;5.10;;;;;;;;;;5010873;28;20565;-69
2022/09/30 10:32:27;;;;;;;5.68;4.45;;;;;;;;;;5012843;28;20054;-69
2022/09/30 10:34:55;;;;;;;5.45;4.93;;;;;;;;;;5005717;28;20058;-69
2022/09/30 10:37:22;;;;;;;5.47;4.50;;;;;;;;;;5011030;28;20094;-70
2022/09/30 10:40:00;;;;;;;6.07;4.45;;;;;;;;;;5011212;28;20054;-69
2022/09/30 10:42:28;;;;;;;4.68;3.70;;;;;;;;;;5012655;28;20050;-70
2022/09/30 10:45:05;;;;;;;3.97;3.58;;;;;;;;;;5010582;28;20083;-67
2022/09/30 10:47:32;;;;;;;4.95;3.45;;;;;;;;;;4993707;28;20046;-68
2022/09/30 10:50:07;;;;;;;5.30;4.20;;;;;;;;;;4998604;28;20470;-68
2022/09/30 10:52:38;;;;;;;4.40;3.33;;;;;;;;;;5012560;28;20458;-69
2022/09/30 10:55:06;;;;;;;5.30;3.58;;;;;;;;;;5011906;28;20058;-68
2022/09/30 10:57:40;;;;;;;4.18;3.63;;;;;;;;;;4998003;28;20069;-68
2022/09/30 11:00:13;;;;;;;5.43;3.47;;;;;;;;;;5011872;28;20054;-69
2022/09/30 11:02:58;;;;;;;3.30;3.00;;;;;;;;;;5005121;28;20058;-68
2022/09/30 11:05:29;;;;;;;3.85;3.05;;;;;;;;;;5012724;28;20065;-69
2022/09/30 11:08:15;;;;;;;6.40;3.03;;;;;;;;;;5010019;28;20058;-70
2022/09/30 11:10:44;;;;;;;5.28;2.20;;;;;;;;;;5007368;28;20062;-70
2022/09/30 11:13:29;;;;;;;2.72;2.08;;;;;;;;;;5012195;28;20058;-71
2022/09/30 11:16:09;;;;;;;1.92;1.73;;;;;;;;;;5005820;28;20058;-69
2022/09/30 11:18:47;;;;;;;2.80;1.92;;;;;;;;;;5008128;28;20508;-68
2022/09/30 11:21:20;;;;;;;2.60;1.60;;;;;;;;;;4991413;28;20527;-67
2022/09/30 11:23:49;;;;;;;3.05;1.80;;;;;;;;;;4994283;28;20062;-68
2022/09/30 11:26:21;;;;;;;2.30;1.98;;;;;;;;;;5012493;28;20112;-68
2022/09/30 11:29:06;;;;;;;3.38;1.95;;;;;;;;;;5013053;28;20059;-68
2022/09/30 11:31:35;;;;;;;1.65;1.55;;;;;;;;;;5023438;28;20498;-71
2022/09/30 11:34:24;;;;;;;2.53;1.92;;;;;;;;;;5009487;28;20050;-68
2022/09/30 11:36:53;;;;;;;2.42;2.10;;;;;;;;;;5011861;28;20047;-70
2022/09/30 11:39:26;;;;;;;2.17;1.60;;;;;;;;;;5012726;28;20062;-71
2022/09/30 11:41:56;;;;;;;2.45;1.35;;;;;;;;;;5010717;28;20050;-70
2022/09/30 11:44:34;;;;;;;1.83;1.73;;;;;;;;;;5012584;28;20058;-70
2022/09/30 11:47:12;;;;;;;2.47;1.60;;;;;;;;;;5012500;28;20055;-71
2022/09/30 11:49:48;;;;;;;1.42;1.33;;;;;;;;;;5012405;28;20102;-71
2022/09/30 11:52:19;;;;;;;2.53;1.95;;;;;;;;;;5012152;28;20062;-71
2022/09/30 11:55:05;;;;;;;3.67;2.50;;;;;;;;;;4997524;28;20114;-72
2022/09/30 11:57:39;;;;;;;2.20;1.70;;;;;;;;;;5006845;28;20050;-68
2022/09/30 12:00:07;;;;;;;2.08;1.88;;;;;;;;;;4997489;28;20062;-67
2022/09/30 12:02:38;;;;;;;2.63;1.80;;;;;;;;;;5011899;28;20140;-68
2022/09/30 12:05:18;;;;;;;2.95;2.35;;;;;;;;;;5032034;28;20569;-68
2022/09/30 12:07:50;;;;;;;3.47;2.50;;;;;;;;;;4998200;28;20054;-69
2022/09/30 12:10:23;;;;;;;2.30;1.98;;;;;;;;;;5011312;28;20061;-70
2022/09/30 12:12:56;;;;;;;2.63;1.67;;;;;;;;;;5011347;28;20121;-69
2022/09/30 12:15:22;;;;;;;3.20;1.80;;;;;;;;;;5008190;28;20105;-68
2022/09/30 12:18:00;;;;;;;3.22;2.03;;;;;;;;;;5009949;28;20050;-69
2022/09/30 12:20:33;;;;;;;3.80;2.65;;;;;;;;;;5011140;28;20573;-68
2022/09/30 12:23:07;;;;;;;2.35;1.50;;;;;;;;;;5010026;28;20057;-68
2022/09/30 12:25:38;;;;;;;2.45;1.70;;;;;;;;;;5011198;28;20137;-69
2022/09/30 12:30:16;;;;;;;2.88;1.70;;;;;;;;;;5012056;28;20117;-70
2022/09/30 12:30:58;;;;;;;2.88;1.60;;;;;;;;;;5010360;28;20475;-69
2022/09/30 12:33:38;;;;;;;2.85;1.52;;;;;;;;;;5008421;28;20054;-69
2022/09/30 12:36:26;;;;;;;1.92;1.80;;;;;;;;;;5010460;28;20058;-70
2022/09/30 12:39:03;;;;;;;2.83;1.60;;;;;;;;;;5016357;28;20058;-68
2022/09/30 12:41:30;;;;;;;4.25;1.80;;;;;;;;;;5006259;28;20062;-68
2022/09/30 12:44:05;;;;;;;3.17;1.25;;;;;;;;;;4992128;28;20125;-69
2022/09/30 12:46:31;;;;;;;;;;;;;;;;;;5009652;28;20050;-70
2022/09/30 12:49:00;;;;;;;1.90;1.38;;;;;;;;;;5010533;28;45416;-70
2022/09/30 12:51:30;;;;;;;2.42;1.40;;;;;;;;;;5012023;28;20051;-71
2022/09/30 12:54:04;;;;;;;3.05;1.60;;;;;;;;;;5009790;28;20562;-70
2022/09/30 12:56:31;;;;;;;3.85;1.88;;;;;;;;;;4998400;28;20058;-70
2022/09/30 12:59:00;;;;;;;2.65;1.75;;;;;;;;;;5009010;28;20414;-71
2022/09/30 13:01:31;;;;;;;3.20;1.90;;;;;;;;;;5011662;28;20058;-73
2022/09/30 13:04:00;;;;;;;3.92;1.92;;;;;;;;;;5010914;28;20055;-73
2022/09/30 13:06:46;;;;;;;3.08;2.38;;;;;;;;;;5010971;28;20097;-70
2022/09/30 13:09:15;;;;;;;2.78;2.25;;;;;;;;;;5009874;28;20051;-72
2022/09/30 13:11:43;;;;;;;2.70;2.40;;;;;;;;;;5003263;28;20050;-75
2022/09/30 13:14:25;;;;;;;4.30;2.30;;;;;;;;;;5009922;28;20066;-69
2022/09/30 13:17:10;;;;;;;3.08;2.30;;;;;;;;;;5010707;28;20054;-71
2022/09/30 13:19:40;;;;;;;3.85;2.72;;;;;;;;;;5010430;28;20054;-72
2022/09/30 13:22:28;;;;;;;2.95;2.53;;;;;;;;;;5009414;28;20058;-71
2022/09/30 13:25:04;;;;;;;3.53;2.55;;;;;;;;;;5010486;28;20532;-71
2022/09/30 13:27:51;;;;;;;3.22;2.35;;;;;;;;;;5010604;28;20485;-70
2022/09/30 13:30:17;;;;;;;3.33;2.65;;;;;;;;;;5011253;28;20148;-70
2022/09/30 13:33:03;;;;;;;5.82;3.53;;;;;;;;;;5018546;28;20533;-70
2022/09/30 13:35:50;;;;;;;5.80;3.38;;;;;;;;;;5014023;28;20058;-70
2022/09/30 13:38:17;;;;;;;5.95;4.53;;;;;;;;;;5013030;28;20058;-69
2022/09/30 13:40:48;;;;;;;4.90;3.42;;;;;;;;;;5013800;28;20553;-70
2022/09/30 13:43:30;;;;;;;6.65;3.25;;;;;;;;;;5010028;28;20059;-70
2022/09/30 13:45:57;;;;;;;4.53;3.22;;;;;;;;;;5013721;28;20565;-70
2022/09/30 13:48:35;;;;;;;3.72;3.35;;;;;;;;;;5013358;28;20098;-68
2022/09/30 13:51:07;;;;;;;4.20;3.08;;;;;;;;;;5011468;28;20505;-69
2022/09/30 13:53:40;;;;;;;5.32;2.95;;;;;;;;;;5013639;28;20128;-69
2022/09/30 13:56:18;;;;;;;3.30;2.30;;;;;;;;;;5011036;28;20124;-71
2022/09/30 13:59:08;;;;;;;2.05;1.85;;;;;;;;;;5014278;28;20054;-71
2022/09/30 14:01:34;;;;;;;3.08;1.88;;;;;;;;;;4997071;28;20054;-70
2022/09/30 14:04:22;;;;;;;3.70;2.28;;;;;;;;;;5007007;28;20057;-71
2022/09/30 14:07:01;;;;;;;2.33;2.10;;;;;;;;;;5013139;28;20538;-70
2022/09/30 14:09:37;;;;;;;3.00;1.70;;;;;;;;;;5013810;28;20050;-71
2022/09/30 14:12:08;;;;;;;2.80;1.70;;;;;;;;;;5013502;28;20059;-71
2022/09/30 14:14:53;;;;;;;3.08;1.50;;;;;;;;;;5005795;28;20065;-72
2022/09/30 14:17:28;;;;;;;1.60;1.50;;;;;;;;;;5013779;28;20054;-71
2022/09/30 14:19:59;;;;;;;2.00;0.93;;;;;;;;;;5013495;28;20086;-72
2022/09/30 14:22:28;;;;;;;3.03;1.30;;;;;;;;;;5013374;28;20546;-70
2022/09/30 14:24:55;;;;;;;3.78;1.70;;;;;;;;;;5013441;28;20061;-72
2022/09/30 14:27:39;;;;;;;1.40;1.30;;;;;;;;;;5012944;28;20113;-69
2022/09/30 14:30:11;;;;;;;2.13;1.35;;;;;;;;;;5013354;28;20051;-72
2022/09/30 14:32:45;;;;;;;2.95;1.58;;;;;;;;;;5013166;28;20061;-71
2022/09/30 14:35:15;;;;;;;3.55;1.35;;;;;;;;;;5010446;28;20455;-71
2022/09/30 14:37:44;;;;;;;6.70;1.70;;;;;;;;;;5000544;28;20050;-74
2022/09/30 14:40:14;;;;;;;2.72;1.50;;;;;;;;;;5013415;28;20446;-73
2022/09/30 14:42:41;;;;;;;2.65;1.63;;;;;;;;;;5012321;28;21372;-71
2022/09/30 14:45:08;;;;;;;6.78;1.45;;;;;;;;;;5007167;28;20063;-70
2022/09/30 14:47:39;;;;;;;3.10;1.83;;;;;;;;;;5008703;28;20061;-71
2022/09/30 14:50:10;;;;;;;3.50;1.80;;;;;;;;;;5012782;28;20054;-71
2022/09/30 14:52:44;;;;;;;3.22;2.00;;;;;;;;;;5012336;28;20059;-70
2022/09/30 14:55:18;;;;;;;2.92;1.67;;;;;;;;;;5012589;28;20065;-71
2022/09/30 14:57:44;;;;;;;12.63;1.65;;;;;;;;;;5012184;28;20057;-70
2022/09/30 15:00:27;;;;;;;5.95;2.10;;;;;;;;;;5011584;28;20050;-70
2022/09/30 15:02:54;;;;;;;3.22;1.92;;;;;;;;;;4997190;28;20061;-70